Time;durP1;ratioP1;P1;durP2;ratioP2;P2;SDS_P1;SDS_P2;PMS_P1;PMS_P2;Temp;Humidity;BMP_temperature;BMP_pressure;BME280_temperature;BME280_humidity;BME280_pressure;Samples;Min_cycle;Max_cycle;Signal;HPM_P1;HPM_P2
2021/05/20 00:00:49;;;;;;;17.00;15.30;;;;;21.00;100800.00;;;;2054236;28;20657;-53
2021/05/20 00:01:49;;;;;;;17.53;15.73;;;;;21.00;100803.00;;;;2044753;29;20213;-53
2021/05/20 00:02:50;;;;;;;17.10;15.40;;;;;21.00;100802.00;;;;2029515;29;20370;-53
2021/05/20 00:03:52;;;;;;;17.25;15.55;;;;;21.00;100805.00;;;;2037703;28;20222;-52
2021/05/20 00:04:52;;;;;;;17.08;15.20;;;;;21.00;100802.00;;;;2051361;28;20216;-53
2021/05/20 00:05:52;;;;;;;16.40;14.70;;;;;21.00;100802.00;;;;2054038;28;20262;-52
2021/05/20 00:06:53;;;;;;;16.07;14.40;;;;;21.00;100803.00;;;;2054177;28;20223;-53
2021/05/20 00:07:53;;;;;;;16.30;14.60;;;;;21.00;100800.00;;;;2045788;28;20224;-52
2021/05/20 00:08:53;;;;;;;17.73;15.70;;;;;21.00;100807.00;;;;2040101;29;20249;-52
2021/05/20 00:09:54;;;;;;;18.07;16.27;;;;;21.00;100808.00;;;;2046370;28;20761;-53
2021/05/20 00:10:54;;;;;;;16.70;14.90;;;;;21.00;100807.00;;;;2048021;28;20234;-53
2021/05/20 00:11:54;;;;;;;15.70;14.10;;;;;21.00;100808.00;;;;2045578;28;20209;-52
2021/05/20 00:12:55;;;;;;;15.93;14.30;;;;;21.00;100808.00;;;;2046485;28;20213;-52
2021/05/20 00:13:55;;;;;;;14.83;13.33;;;;;21.00;100816.00;;;;2045788;28;20705;-53
2021/05/20 00:14:56;;;;;;;15.93;14.23;;;;;21.00;100806.00;;;;2038076;29;20730;-53
2021/05/20 00:15:56;;;;;;;15.50;13.93;;;;;21.00;100810.00;;;;2037980;29;20720;-53
2021/05/20 00:16:56;;;;;;;14.10;12.70;;;;;21.00;100810.00;;;;2046577;28;20617;-53
2021/05/20 00:17:57;;;;;;;15.20;13.60;;;;;21.00;100809.00;;;;2046355;28;20380;-52
2021/05/20 00:18:57;;;;;;;14.70;13.20;;;;;21.00;100806.00;;;;2046530;28;20731;-52
2021/05/20 00:19:57;;;;;;;15.30;13.80;;;;;21.00;100803.00;;;;2046554;28;20300;-53
2021/05/20 00:20:58;;;;;;;14.00;12.53;;;;;21.00;100807.00;;;;2046217;28;20227;-53
2021/05/20 00:21:58;;;;;;;13.70;12.13;;;;;21.00;100807.00;;;;2046108;28;20379;-53
2021/05/20 00:22:58;;;;;;;14.17;12.67;;;;;20.70;100808.00;;;;2046400;28;20316;-53
2021/05/20 00:23:59;;;;;;;14.17;12.73;;;;;20.90;100809.00;;;;2046377;28;20225;-52
2021/05/20 00:24:59;;;;;;;13.40;12.07;;;;;20.90;100817.00;;;;2046500;28;20225;-53
2021/05/20 00:26:00;;;;;;;14.23;12.83;;;;;20.90;100821.00;;;;2045775;28;20220;-53
2021/05/20 00:27:00;;;;;;;14.73;13.33;;;;;20.90;100805.00;;;;2046611;28;20221;-53
2021/05/20 00:28:00;;;;;;;13.53;12.13;;;;;20.90;100813.00;;;;2046586;28;20299;-53
2021/05/20 00:29:01;;;;;;;14.20;12.80;;;;;20.90;100819.00;;;;2041322;28;20232;-53
2021/05/20 00:30:01;;;;;;;13.83;12.27;;;;;20.90;100811.00;;;;2045694;28;20701;-53
2021/05/20 00:31:02;;;;;;;14.00;12.67;;;;;20.90;100805.00;;;;2045551;28;20212;-53
2021/05/20 00:32:02;;;;;;;14.80;13.30;;;;;20.90;100804.00;;;;2046526;28;20213;-52
2021/05/20 00:33:02;;;;;;;12.73;11.53;;;;;20.90;100809.00;;;;2046089;28;20664;-53
2021/05/20 00:34:04;;;;;;;13.43;12.13;;;;;20.90;100817.00;;;;2046516;28;20320;-53
2021/05/20 00:35:06;;;;;;;12.80;11.60;;;;;20.90;100817.00;;;;2051436;28;20291;-53
2021/05/20 00:36:06;;;;;;;13.48;12.02;;;;;20.90;100811.00;;;;2053859;28;20218;-53
2021/05/20 00:37:07;;;;;;;13.73;12.43;;;;;20.90;100816.00;;;;2048655;28;20582;-53
2021/05/20 00:38:10;;;;;;;12.67;11.40;;;;;20.90;100814.00;;;;2048217;28;20526;-53
2021/05/20 00:39:11;;;;;;;13.70;12.25;;;;;20.90;100822.00;;;;2048682;28;21048;-53
2021/05/20 00:40:11;;;;;;;13.03;11.77;;;;;20.90;100825.00;;;;2047353;28;20221;-53
2021/05/20 00:41:12;;;;;;;11.37;10.27;;;;;20.90;100822.00;;;;2045176;28;20212;-56
2021/05/20 00:42:12;;;;;;;12.87;11.67;;;;;20.90;100821.00;;;;2046312;28;20287;-55
2021/05/20 00:43:13;;;;;;;11.93;10.70;;;;;20.90;100819.00;;;;2044804;28;20233;-53
2021/05/20 00:44:13;;;;;;;12.87;11.27;;;;;20.90;100815.00;;;;2044913;29;20251;-52
2021/05/20 00:45:14;;;;;;;12.50;11.30;;;;;20.90;100818.00;;;;2052620;28;20270;-53
2021/05/20 00:46:14;;;;;;;12.27;11.07;;;;;20.90;100821.00;;;;2045434;28;20215;-53
2021/05/20 00:47:18;;;;;;;11.63;10.43;;;;;20.90;100816.00;;;;2045453;28;20499;-53
2021/05/20 00:48:18;;;;;;;12.00;10.38;;;;;20.90;100824.00;;;;2048603;28;20211;-53
2021/05/20 00:49:18;;;;;;;12.23;10.93;;;;;20.90;100821.00;;;;2053605;28;20223;-53
2021/05/20 00:50:19;;;;;;;11.60;10.47;;;;;20.90;100819.00;;;;2053821;28;20331;-53
2021/05/20 00:51:19;;;;;;;10.70;9.60;;;;;20.80;100817.00;;;;2053512;28;20283;-53
2021/05/20 00:52:19;;;;;;;11.83;10.67;;;;;20.90;100822.00;;;;2046382;28;20584;-53
2021/05/20 00:53:20;;;;;;;11.83;10.70;;;;;20.90;100828.00;;;;2046491;28;20208;-52
2021/05/20 00:54:20;;;;;;;10.97;9.97;;;;;20.90;100833.00;;;;2046082;28;20217;-53
2021/05/20 00:55:23;;;;;;;11.67;10.47;;;;;20.90;100821.00;;;;2037782;29;20221;-52
2021/05/20 00:56:24;;;;;;;11.43;10.32;;;;;20.90;100821.00;;;;2034398;29;20305;-53
2021/05/20 00:57:24;;;;;;;11.37;9.90;;;;;20.90;100830.00;;;;2038088;29;20646;-52
2021/05/20 00:58:24;;;;;;;10.77;9.57;;;;;20.90;100829.00;;;;2045740;29;20216;-52
2021/05/20 00:59:25;;;;;;;10.47;9.47;;;;;20.90;100828.00;;;;2053854;28;20283;-53
2021/05/20 01:00:25;;;;;;;11.87;10.40;;;;;20.90;100830.00;;;;2054030;28;20311;-53
2021/05/20 01:01:25;;;;;;;11.87;10.60;;;;;20.90;100825.00;;;;2053162;28;20334;-53
2021/05/20 01:02:26;;;;;;;10.30;9.30;;;;;20.80;100820.00;;;;2046488;28;21006;-53
2021/05/20 01:03:26;;;;;;;10.80;9.80;;;;;20.80;100823.00;;;;2037792;29;20603;-52
2021/05/20 01:04:26;;;;;;;10.00;9.00;;;;;20.80;100822.00;;;;2037629;29;20341;-52
2021/05/20 01:05:27;;;;;;;9.40;8.50;;;;;20.80;100823.00;;;;2054180;28;20231;-52
2021/05/20 01:06:27;;;;;;;10.67;9.60;;;;;20.80;100815.00;;;;2053156;28;20212;-52
2021/05/20 01:07:28;;;;;;;9.60;8.70;;;;;20.80;100815.00;;;;2054136;28;20228;-52
2021/05/20 01:08:28;;;;;;;9.83;8.83;;;;;20.80;100818.00;;;;2051894;28;20219;-53
2021/05/20 01:09:28;;;;;;;9.93;8.90;;;;;20.80;100815.00;;;;2046129;28;20229;-53
2021/05/20 01:10:29;;;;;;;9.77;8.77;;;;;20.80;100824.00;;;;2050063;28;20248;-52
2021/05/20 01:11:29;;;;;;;9.47;8.57;;;;;20.80;100816.00;;;;2048852;28;20213;-53
2021/05/20 01:12:29;;;;;;;10.37;9.37;;;;;20.80;100821.00;;;;2037837;29;20762;-52
2021/05/20 01:13:30;;;;;;;8.60;7.80;;;;;20.80;100783.00;;;;2037642;29;20822;-53
2021/05/20 01:14:37;;;;;;;9.10;8.27;;;;;20.80;100821.00;;;;2045866;28;20589;-53
2021/05/20 01:15:37;;;;;;;9.35;8.45;;;;;20.80;100833.00;;;;2037700;29;20232;-52
2021/05/20 01:16:38;;;;;;;10.43;9.07;;;;;20.80;100835.00;;;;2037453;29;20220;-54
2021/05/20 01:17:38;;;;;;;10.33;9.30;;;;;20.80;100831.00;;;;2046243;28;20213;-53
2021/05/20 01:18:39;;;;;;;8.93;8.13;;;;;20.80;100825.00;;;;2046267;28;20679;-53
2021/05/20 01:19:45;;;;;;;8.97;8.07;;;;;20.80;100825.00;;;;2046073;28;20212;-53
2021/05/20 01:20:45;;;;;;;9.35;8.45;;;;;20.80;100836.00;;;;2046349;28;20295;-52
2021/05/20 01:21:45;;;;;;;9.43;8.43;;;;;20.80;100823.00;;;;2045553;28;20222;-53
2021/05/20 01:22:46;;;;;;;9.73;8.33;;;;;20.80;100833.00;;;;2046050;28;20256;-53
2021/05/20 01:23:46;;;;;;;9.43;8.43;;;;;20.80;100833.00;;;;2046121;28;20217;-53
2021/05/20 01:24:46;;;;;;;9.17;8.27;;;;;20.80;100830.00;;;;2046083;28;20589;-53
2021/05/20 01:25:48;;;;;;;9.20;8.30;;;;;20.80;100832.00;;;;2045602;28;20209;-53
2021/05/20 01:26:48;;;;;;;8.70;7.90;;;;;20.80;100845.00;;;;2044946;28;20224;-53
2021/05/20 01:27:49;;;;;;;9.20;8.30;;;;;20.80;100839.00;;;;2029458;29;20222;-53
2021/05/20 01:28:49;;;;;;;8.47;7.67;;;;;20.80;100850.00;;;;2021397;29;20215;-54
2021/05/20 01:29:49;;;;;;;8.23;7.43;;;;;20.80;100836.00;;;;2040639;29;20220;-56
2021/05/20 01:30:50;;;;;;;9.00;8.10;;;;;20.80;100850.00;;;;2044886;29;20280;-55
2021/05/20 01:31:50;;;;;;;8.10;7.37;;;;;20.80;100851.00;;;;2044685;29;20232;-54
2021/05/20 01:32:50;;;;;;;7.83;7.10;;;;;20.70;100849.00;;;;2053821;28;20752;-53
2021/05/20 01:33:51;;;;;;;8.20;7.30;;;;;20.80;100851.00;;;;2053706;28;20911;-53
2021/05/20 01:34:56;;;;;;;8.13;7.33;;;;;20.80;100850.00;;;;2053439;28;20213;-53
2021/05/20 01:35:56;;;;;;;8.13;7.43;;;;;20.80;100848.00;;;;2052279;28;20211;-54
2021/05/20 01:36:56;;;;;;;8.73;7.93;;;;;20.80;100851.00;;;;2049099;28;20216;-53
2021/05/20 01:39:25;;;;;;;7.32;6.63;;;;;20.70;100846.00;;;;2048290;28;20233;-53
2021/05/20 01:40:26;;;;;;;8.77;7.87;;;;;20.70;100847.00;;;;2045657;28;20242;-53
2021/05/20 01:41:26;;;;;;;7.90;7.10;;;;;20.70;100839.00;;;;2045051;28;20217;-53
2021/05/20 01:42:27;;;;;;;7.87;7.07;;;;;20.70;100846.00;;;;2045327;28;20231;-53
2021/05/20 01:43:27;;;;;;;7.80;7.00;;;;;20.80;100843.00;;;;2045295;28;20336;-53
2021/05/20 01:44:28;;;;;;;8.07;7.37;;;;;20.80;100836.00;;;;2050733;28;20279;-53
2021/05/20 01:45:31;;;;;;;8.20;7.40;;;;;20.80;100834.00;;;;2053500;28;20212;-53
2021/05/20 01:46:31;;;;;;;7.50;6.80;;;;;20.70;100839.00;;;;2051316;28;20243;-52
2021/05/20 01:47:31;;;;;;;8.20;7.40;;;;;20.80;100847.00;;;;2048471;28;20646;-52
2021/05/20 01:48:45;;;;;;;7.53;6.83;;;;;20.70;100850.00;;;;2053381;28;20585;-53
2021/05/20 01:49:51;;;;;;;7.57;6.88;;;;;20.70;100849.00;;;;2053974;28;20572;-53
2021/05/20 01:50:51;;;;;;;7.60;6.75;;;;;20.70;100850.00;;;;2053964;28;20223;-53
2021/05/20 01:51:51;;;;;;;7.53;6.83;;;;;20.70;100846.00;;;;2053482;28;20654;-53
2021/05/20 01:52:52;;;;;;;7.63;6.93;;;;;20.70;100849.00;;;;2055293;28;20219;-53
2021/05/20 01:53:53;;;;;;;8.80;7.53;;;;;20.70;100852.00;;;;2055434;28;20212;-53
2021/05/20 01:54:54;;;;;;;7.20;6.50;;;;;20.70;100848.00;;;;2055080;28;20693;-53
2021/05/20 01:55:54;;;;;;;8.07;7.30;;;;;20.70;100845.00;;;;2055634;28;20223;-53
2021/05/20 01:56:54;;;;;;;8.27;7.47;;;;;20.70;100839.00;;;;2055568;28;20843;-54
2021/05/20 01:57:55;;;;;;;8.50;7.10;;;;;20.70;100845.00;;;;2055582;28;20234;-53
2021/05/20 01:58:55;;;;;;;8.60;7.80;;;;;20.70;100845.00;;;;2053901;28;20212;-52
2021/05/20 01:59:55;;;;;;;8.57;7.67;;;;;20.70;100851.00;;;;2047296;28;20292;-53
2021/05/20 02:00:56;;;;;;;7.77;7.07;;;;;20.70;100849.00;;;;2047427;28;20209;-53
2021/05/20 02:01:56;;;;;;;8.10;7.20;;;;;20.70;100839.00;;;;2046865;28;20209;-52
2021/05/20 02:02:56;;;;;;;8.07;7.37;;;;;20.70;100839.00;;;;2047557;28;20221;-53
2021/05/20 02:03:57;;;;;;;7.73;7.03;;;;;20.70;100847.00;;;;2047437;28;20292;-53
2021/05/20 02:04:57;;;;;;;8.53;7.73;;;;;20.70;100849.00;;;;2047596;28;20212;-52
2021/05/20 02:05:58;;;;;;;8.73;7.83;;;;;20.70;100836.00;;;;2049999;28;20212;-52
2021/05/20 02:06:58;;;;;;;8.83;7.93;;;;;20.60;100849.00;;;;2049595;28;20240;-53
2021/05/20 02:07:59;;;;;;;8.63;7.83;;;;;20.70;100838.00;;;;2049563;28;20215;-53
2021/05/20 02:08:59;;;;;;;9.10;8.20;;;;;20.70;100844.00;;;;2049143;28;20219;-53
2021/05/20 02:09:59;;;;;;;8.73;7.93;;;;;20.70;100837.00;;;;2038970;29;20304;-53
2021/05/20 02:11:00;;;;;;;9.53;8.63;;;;;20.60;100835.00;;;;2038437;29;20218;-53
2021/05/20 02:12:00;;;;;;;8.63;7.73;;;;;20.70;100847.00;;;;2047533;28;20225;-52
2021/05/20 02:13:00;;;;;;;9.47;8.40;;;;;20.70;100850.00;;;;2047577;28;20223;-53
2021/05/20 02:14:01;;;;;;;8.63;7.77;;;;;20.60;100844.00;;;;2047249;28;20737;-53
2021/05/20 02:15:01;;;;;;;9.17;7.90;;;;;20.70;100850.00;;;;2047507;28;20220;-52
2021/05/20 02:16:02;;;;;;;8.63;7.83;;;;;20.70;100850.00;;;;2047479;28;20227;-52
2021/05/20 02:17:03;;;;;;;8.30;7.50;;;;;20.60;100844.00;;;;2047540;28;20231;-53
2021/05/20 02:18:04;;;;;;;9.07;8.17;;;;;20.60;100847.00;;;;2046620;29;20516;-53
2021/05/20 02:19:05;;;;;;;9.98;8.98;;;;;20.60;100846.00;;;;2046687;29;20216;-53
2021/05/20 02:20:07;;;;;;;10.07;8.50;;;;;20.70;100848.00;;;;2047381;28;20217;-52
2021/05/20 02:21:07;;;;;;;9.32;8.32;;;;;20.60;100850.00;;;;2046532;28;20217;-53
2021/05/20 02:22:07;;;;;;;11.30;8.13;;;;;20.70;100844.00;;;;2047449;28;20240;-53
2021/05/20 02:23:08;;;;;;;9.17;8.23;;;;;20.50;100853.00;;;;2047308;28;20216;-52
2021/05/20 02:24:08;;;;;;;10.57;9.07;;;;;20.60;100850.00;;;;2047448;28;20217;-53
2021/05/20 02:25:09;;;;;;;11.77;10.27;;;;;20.60;100853.00;;;;2047455;28;20213;-53
2021/05/20 02:26:09;;;;;;;11.47;8.57;;;;;20.60;100851.00;;;;2054907;28;20689;-52
2021/05/20 02:27:10;;;;;;;9.63;8.63;;;;;20.60;100848.00;;;;2047239;28;20213;-53
2021/05/20 02:28:10;;;;;;;11.00;9.23;;;;;20.60;100854.00;;;;2047846;28;20216;-53
2021/05/20 02:29:10;;;;;;;10.90;9.07;;;;;20.60;100860.00;;;;2050313;28;20209;-53
2021/05/20 02:30:12;;;;;;;10.03;9.00;;;;;20.60;100856.00;;;;2048378;28;20312;-53
2021/05/20 02:31:12;;;;;;;12.20;10.60;;;;;20.60;100857.00;;;;2054630;28;20223;-53
2021/05/20 02:32:12;;;;;;;13.03;10.53;;;;;20.60;100858.00;;;;2053292;28;20291;-53
2021/05/20 02:33:13;;;;;;;12.40;11.13;;;;;20.60;100858.00;;;;2047310;28;20236;-53
2021/05/20 02:34:14;;;;;;;14.43;10.87;;;;;20.60;100860.00;;;;2045961;28;20267;-53
2021/05/20 02:35:14;;;;;;;12.10;10.17;;;;;20.60;100856.00;;;;2047291;28;20213;-53
2021/05/20 02:36:15;;;;;;;12.23;10.50;;;;;20.60;100860.00;;;;2048467;28;20476;-54
2021/05/20 02:37:15;;;;;;;15.67;11.23;;;;;20.60;100861.00;;;;2048291;28;20573;-53
2021/05/20 02:38:15;;;;;;;11.50;9.53;;;;;20.60;100865.00;;;;2048030;28;20211;-53
2021/05/20 02:39:16;;;;;;;13.80;11.10;;;;;20.60;100864.00;;;;2047805;28;20209;-53
2021/05/20 02:40:16;;;;;;;11.53;10.33;;;;;20.60;100867.00;;;;2046965;28;20213;-53
2021/05/20 02:41:17;;;;;;;14.33;10.83;;;;;20.60;100865.00;;;;2046440;28;20213;-53
2021/05/20 02:42:17;;;;;;;13.60;11.20;;;;;20.60;100865.00;;;;2047274;28;20208;-53
2021/05/20 02:43:18;;;;;;;14.17;12.00;;;;;20.60;100864.00;;;;2046568;28;21191;-53
2021/05/20 02:44:18;;;;;;;14.40;11.60;;;;;20.60;100864.00;;;;2047169;28;20220;-53
2021/05/20 02:45:20;;;;;;;12.57;10.40;;;;;20.60;100874.00;;;;2047154;28;20280;-53
2021/05/20 02:46:21;;;;;;;13.43;11.10;;;;;20.60;100872.00;;;;2047147;28;20220;-53
2021/05/20 02:47:21;;;;;;;14.70;11.77;;;;;20.60;100866.00;;;;2047104;28;20336;-53
2021/05/20 02:48:22;;;;;;;15.10;10.87;;;;;20.60;100869.00;;;;2044207;28;20212;-53
2021/05/20 02:49:22;;;;;;;14.13;11.60;;;;;20.60;100872.00;;;;2046755;28;20232;-53
2021/05/20 02:50:23;;;;;;;14.67;12.13;;;;;20.60;100873.00;;;;2047174;28;20217;-53
2021/05/20 02:51:23;;;;;;;15.90;12.43;;;;;20.60;100874.00;;;;2045976;28;20228;-53
2021/05/20 02:52:24;;;;;;;12.77;11.47;;;;;20.60;100863.00;;;;2047204;28;20220;-53
2021/05/20 02:53:24;;;;;;;13.87;12.10;;;;;20.60;100868.00;;;;2047128;28;20221;-52
2021/05/20 02:54:24;;;;;;;15.60;11.80;;;;;20.60;100873.00;;;;2047201;28;20733;-52
2021/05/20 02:55:25;;;;;;;13.30;10.93;;;;;20.60;100866.00;;;;2046906;28;20742;-52
2021/05/20 02:56:25;;;;;;;13.20;11.50;;;;;20.60;100859.00;;;;2047065;28;20577;-53
2021/05/20 02:57:25;;;;;;;14.70;12.80;;;;;20.60;100861.00;;;;2046700;28;20626;-53
2021/05/20 02:58:27;;;;;;;14.70;11.67;;;;;20.50;100860.00;;;;2047111;28;20279;-52
2021/05/20 02:59:27;;;;;;;16.17;11.93;;;;;20.50;100867.00;;;;2051023;28;20247;-53
2021/05/20 03:00:36;;;;;;;14.77;11.90;;;;;20.60;100859.00;;;;2054204;28;21101;-53
2021/05/20 03:01:43;;;;;;;14.05;12.50;;;;;20.50;100863.00;;;;2053982;28;20255;-53
2021/05/20 03:02:44;;;;;;;15.35;12.57;;;;;20.50;100863.00;;;;2054988;28;20261;-52
2021/05/20 03:03:44;;;;;;;16.15;12.50;;;;;20.50;100863.00;;;;2054031;28;20220;-53
2021/05/20 03:04:45;;;;;;;16.83;13.33;;;;;20.60;100865.00;;;;2054097;28;20303;-52
2021/05/20 03:05:45;;;;;;;15.70;12.70;;;;;20.60;100870.00;;;;2053985;28;20215;-52
2021/05/20 03:06:46;;;;;;;16.50;13.07;;;;;20.60;100873.00;;;;2046608;28;20217;-53
2021/05/20 03:07:46;;;;;;;16.80;12.33;;;;;20.60;100873.00;;;;2030189;29;20222;-53
2021/05/20 03:08:46;;;;;;;15.80;12.93;;;;;20.60;100875.00;;;;2033499;29;20261;-53
2021/05/20 03:09:47;;;;;;;16.67;13.10;;;;;20.60;100881.00;;;;2043713;28;20292;-53
2021/05/20 03:10:47;;;;;;;16.70;13.10;;;;;20.60;100880.00;;;;2045026;29;20212;-53
2021/05/20 03:11:47;;;;;;;17.63;14.00;;;;;20.60;100874.00;;;;2053356;28;20213;-53
2021/05/20 03:12:48;;;;;;;16.47;12.93;;;;;20.60;100880.00;;;;2054457;28;20347;-52
2021/05/20 03:13:48;;;;;;;16.47;12.70;;;;;20.60;100887.00;;;;2054459;28;20216;-52
2021/05/20 03:14:48;;;;;;;20.60;13.87;;;;;20.60;100890.00;;;;2054636;28;20216;-53
2021/05/20 03:15:49;;;;;;;16.60;13.27;;;;;20.60;100881.00;;;;2053920;28;20227;-52
2021/05/20 03:16:49;;;;;;;16.37;13.67;;;;;20.60;100885.00;;;;2054432;28;20212;-52
2021/05/20 03:17:49;;;;;;;17.30;14.10;;;;;20.60;100888.00;;;;2054425;28;20222;-52
2021/05/20 03:18:50;;;;;;;15.03;12.50;;;;;20.60;100875.00;;;;2054347;28;20223;-53
2021/05/20 03:19:50;;;;;;;17.07;13.63;;;;;20.60;100883.00;;;;2054183;28;20227;-52
2021/05/20 03:20:50;;;;;;;16.90;13.70;;;;;20.60;100880.00;;;;2054550;28;20231;-52
2021/05/20 03:21:51;;;;;;;18.03;13.83;;;;;20.60;100876.00;;;;2052724;28;20303;-53
2021/05/20 03:22:51;;;;;;;17.50;13.97;;;;;20.60;100883.00;;;;2054313;28;20287;-53
2021/05/20 03:23:53;;;;;;;15.23;12.50;;;;;20.50;100879.00;;;;2054382;28;20212;-53
2021/05/20 03:24:53;;;;;;;15.85;13.65;;;;;20.60;100878.00;;;;2044680;28;20216;-53
2021/05/20 03:25:53;;;;;;;17.97;14.83;;;;;20.60;100894.00;;;;2052694;28;20222;-53
2021/05/20 03:26:54;;;;;;;15.07;12.90;;;;;20.60;100874.00;;;;2045883;28;20221;-52
2021/05/20 03:27:54;;;;;;;17.47;13.77;;;;;20.50;100877.00;;;;2046375;28;20268;-53
2021/05/20 03:28:54;;;;;;;17.60;13.87;;;;;20.50;100872.00;;;;2046308;28;20304;-53
2021/05/20 03:29:55;;;;;;;17.67;14.63;;;;;20.50;100884.00;;;;2046225;28;20221;-52
2021/05/20 03:30:55;;;;;;;18.83;14.67;;;;;20.60;100877.00;;;;2043349;28;20213;-53
2021/05/20 03:31:55;;;;;;;15.63;13.50;;;;;20.50;100881.00;;;;2045487;28;20798;-53
2021/05/20 03:32:56;;;;;;;17.23;13.90;;;;;20.50;100875.00;;;;2046461;28;20306;-53
2021/05/20 03:33:56;;;;;;;19.67;14.77;;;;;20.50;100880.00;;;;2045174;28;20231;-53
2021/05/20 03:34:56;;;;;;;17.87;14.70;;;;;20.50;100879.00;;;;2052709;28;20212;-53
2021/05/20 03:35:57;;;;;;;18.40;15.20;;;;;20.50;100878.00;;;;2051975;28;20251;-53
2021/05/20 03:36:57;;;;;;;18.07;13.37;;;;;20.50;100878.00;;;;2049098;28;20295;-53
2021/05/20 03:37:58;;;;;;;19.60;14.73;;;;;20.50;100883.00;;;;2048570;28;20219;-52
2021/05/20 03:38:58;;;;;;;15.57;13.60;;;;;20.50;100882.00;;;;2048342;28;20215;-53
2021/05/20 03:39:58;;;;;;;18.10;14.87;;;;;20.50;100885.00;;;;2046234;28;20327;-53
2021/05/20 03:41:00;;;;;;;17.70;13.07;;;;;20.50;100880.00;;;;2044297;28;20228;-53
2021/05/20 03:42:02;;;;;;;16.08;14.00;;;;;20.50;100881.00;;;;2048256;28;20658;-53
2021/05/20 03:43:02;;;;;;;17.90;14.07;;;;;20.50;100885.00;;;;2053854;28;20239;-53
2021/05/20 03:44:03;;;;;;;17.30;15.40;;;;;20.50;100893.00;;;;2053707;28;20303;-53
2021/05/20 03:45:04;;;;;;;16.40;13.00;;;;;20.50;100888.00;;;;2054166;28;20212;-52
2021/05/20 03:46:06;;;;;;;15.65;13.20;;;;;20.50;100894.00;;;;2053833;28;20282;-52
2021/05/20 03:47:06;;;;;;;17.10;13.55;;;;;20.50;100892.00;;;;2054234;28;20216;-53
2021/05/20 03:48:07;;;;;;;17.30;13.80;;;;;20.50;100892.00;;;;2054068;28;20228;-53
2021/05/20 03:49:07;;;;;;;18.47;14.17;;;;;20.50;100890.00;;;;2054039;28;20212;-53
2021/05/20 03:50:08;;;;;;;16.50;14.20;;;;;20.50;100895.00;;;;2053879;28;20216;-53
2021/05/20 03:51:08;;;;;;;19.37;14.80;;;;;20.50;100892.00;;;;2053690;28;20224;-53
2021/05/20 03:52:09;;;;;;;18.40;14.90;;;;;20.50;100888.00;;;;2054627;28;20228;-53
2021/05/20 03:53:09;;;;;;;19.23;15.30;;;;;20.50;100898.00;;;;2054666;28;20235;-52
2021/05/20 03:54:10;;;;;;;17.90;14.60;;;;;20.50;100887.00;;;;2054519;28;20695;-53
2021/05/20 03:55:10;;;;;;;19.73;14.97;;;;;20.50;100894.00;;;;2054126;28;20689;-53
2021/05/20 03:56:11;;;;;;;19.27;14.10;;;;;20.50;100888.00;;;;2053666;28;20251;-53
2021/05/20 03:57:11;;;;;;;17.60;14.60;;;;;20.50;100894.00;;;;2053871;28;20224;-53
2021/05/20 03:58:11;;;;;;;17.37;14.60;;;;;20.50;100897.00;;;;2053883;28;20220;-52
2021/05/20 03:59:12;;;;;;;16.90;13.87;;;;;20.50;100901.00;;;;2054193;28;20295;-52
2021/05/20 04:00:12;;;;;;;18.20;15.30;;;;;20.50;100897.00;;;;2054039;28;20274;-53
2021/05/20 04:01:13;;;;;;;18.30;14.20;;;;;20.50;100895.00;;;;2052591;28;20983;-52
2021/05/20 04:02:13;;;;;;;19.20;15.57;;;;;20.50;100896.00;;;;2053405;28;20824;-53
2021/05/20 04:03:26;;;;;;;19.23;14.63;;;;;20.50;100900.00;;;;2054016;28;20216;-53
2021/05/20 04:04:26;;;;;;;19.00;14.48;;;;;20.50;100908.00;;;;2053655;28;20378;-52
2021/05/20 04:05:26;;;;;;;16.70;14.13;;;;;20.50;100908.00;;;;2054265;28;20216;-52
2021/05/20 04:06:27;;;;;;;19.70;15.87;;;;;20.50;100905.00;;;;2049472;28;20213;-53
2021/05/20 04:07:27;;;;;;;17.90;14.70;;;;;20.50;100893.00;;;;2048167;28;20237;-52
2021/05/20 04:08:28;;;;;;;18.60;15.37;;;;;20.50;100899.00;;;;2047626;28;20216;-52
2021/05/20 04:09:28;;;;;;;19.50;15.80;;;;;20.50;100900.00;;;;2047524;28;20216;-53
2021/05/20 04:10:28;;;;;;;16.50;14.30;;;;;20.50;100907.00;;;;2045782;28;20217;-52
2021/05/20 04:11:29;;;;;;;21.00;16.13;;;;;20.50;100902.00;;;;2048221;28;20209;-52
2021/05/20 04:12:29;;;;;;;18.93;15.10;;;;;20.50;100893.00;;;;2053997;28;20219;-53
2021/05/20 04:13:33;;;;;;;16.67;14.47;;;;;20.50;100898.00;;;;2053673;28;20503;-53
2021/05/20 04:14:33;;;;;;;20.83;15.50;;;;;20.50;100895.00;;;;2053727;28;20704;-52
2021/05/20 04:15:34;;;;;;;19.40;15.10;;;;;20.50;100900.00;;;;2053231;28;20217;-53
2021/05/20 04:16:34;;;;;;;18.47;15.07;;;;;20.50;100902.00;;;;2054093;28;20216;-53
2021/05/20 04:17:34;;;;;;;17.63;14.50;;;;;20.50;100902.00;;;;2053849;28;20224;-52
2021/05/20 04:18:35;;;;;;;19.00;15.03;;;;;20.50;100906.00;;;;2054179;28;20219;-53
2021/05/20 04:19:35;;;;;;;19.27;15.33;;;;;20.50;100907.00;;;;2052347;28;20220;-52
2021/05/20 04:20:35;;;;;;;21.73;16.23;;;;;20.50;100907.00;;;;2044194;28;20617;-52
2021/05/20 04:21:36;;;;;;;19.80;15.40;;;;;20.50;100903.00;;;;2045262;28;20711;-53
2021/05/20 04:22:36;;;;;;;19.40;15.37;;;;;20.50;100908.00;;;;2045958;28;20332;-52
2021/05/20 04:23:42;;;;;;;17.57;14.07;;;;;20.50;100898.00;;;;2045970;28;20235;-53
2021/05/20 04:24:42;;;;;;;19.13;15.00;;;;;20.50;100900.00;;;;2050307;28;20355;-53
2021/05/20 04:25:43;;;;;;;19.23;15.50;;;;;20.40;100909.00;;;;2054297;28;20287;-53
2021/05/20 04:26:43;;;;;;;19.77;16.60;;;;;20.40;100905.00;;;;2054471;28;20219;-53
2021/05/20 04:27:44;;;;;;;18.60;14.77;;;;;20.40;100903.00;;;;2045796;29;20286;-52
2021/05/20 04:28:45;;;;;;;19.17;15.50;;;;;20.50;100908.00;;;;2045509;29;20282;-53
2021/05/20 04:29:46;;;;;;;18.42;14.85;;;;;20.50;100911.00;;;;2054166;28;20591;-52
2021/05/20 04:30:46;;;;;;;20.60;15.43;;;;;20.40;100909.00;;;;2051378;28;20227;-53
2021/05/20 04:31:46;;;;;;;19.80;16.50;;;;;20.40;100912.00;;;;2045422;28;20243;-53
2021/05/20 04:32:47;;;;;;;20.87;16.60;;;;;20.40;100914.00;;;;2046174;28;20219;-52
2021/05/20 04:33:47;;;;;;;21.93;16.30;;;;;20.50;100911.00;;;;2045892;28;20216;-52
2021/05/20 04:34:48;;;;;;;20.50;17.27;;;;;20.50;100918.00;;;;2045984;28;20288;-53
2021/05/20 04:35:48;;;;;;;20.00;16.40;;;;;20.40;100913.00;;;;2043661;28;20750;-52
2021/05/20 04:36:48;;;;;;;21.27;16.77;;;;;20.50;100916.00;;;;2037511;29;20659;-54
2021/05/20 04:37:49;;;;;;;22.87;16.80;;;;;20.50;100920.00;;;;2037997;29;20302;-52
2021/05/20 04:38:49;;;;;;;20.57;15.70;;;;;20.40;100920.00;;;;2047401;28;20813;-53
2021/05/20 04:39:49;;;;;;;21.33;17.20;;;;;20.40;100917.00;;;;2048207;28;20684;-53
2021/05/20 04:40:50;;;;;;;20.27;16.53;;;;;20.40;100915.00;;;;2043353;28;20555;-52
2021/05/20 04:41:50;;;;;;;19.90;16.60;;;;;20.40;100913.00;;;;2044300;28;20221;-53
2021/05/20 04:42:51;;;;;;;20.53;16.63;;;;;20.40;100908.00;;;;2045392;28;20343;-54
2021/05/20 04:43:51;;;;;;;22.40;16.90;;;;;20.50;100913.00;;;;2052853;28;20279;-55
2021/05/20 04:44:52;;;;;;;22.70;17.20;;;;;20.40;100910.00;;;;2053724;28;20929;-54
2021/05/20 04:45:52;;;;;;;21.60;17.43;;;;;20.40;100910.00;;;;2050098;28;20224;-52
2021/05/20 04:46:52;;;;;;;22.07;18.27;;;;;20.40;100914.00;;;;2049742;28;20220;-56
2021/05/20 04:47:53;;;;;;;20.50;17.00;;;;;20.40;100914.00;;;;2053956;28;20215;-54
2021/05/20 04:48:53;;;;;;;22.00;17.40;;;;;20.40;100917.00;;;;2053738;28;20220;-54
2021/05/20 04:49:53;;;;;;;22.80;18.10;;;;;20.40;100913.00;;;;2053648;28;20251;-54
2021/05/20 04:50:56;;;;;;;21.50;16.97;;;;;20.40;100922.00;;;;2053603;28;20593;-54
2021/05/20 04:51:56;;;;;;;21.00;17.38;;;;;20.40;100923.00;;;;2053061;28;20228;-53
2021/05/20 04:52:56;;;;;;;22.40;17.70;;;;;20.40;100922.00;;;;2053810;28;20243;-53
2021/05/20 04:53:57;;;;;;;23.37;17.00;;;;;20.40;100929.00;;;;2053434;28;20220;-53
2021/05/20 04:54:57;;;;;;;22.43;15.47;;;;;20.40;100929.00;;;;2053627;28;20212;-53
2021/05/20 04:55:57;;;;;;;20.10;16.63;;;;;20.30;100931.00;;;;2050836;28;20236;-53
2021/05/20 04:56:58;;;;;;;21.50;17.50;;;;;20.40;100940.00;;;;2046096;28;20321;-52